Time;durP1;ratioP1;P1;durP2;ratioP2;P2;SDS_P1;SDS_P2;PMS_P1;PMS_P2;Temp;Humidity;BMP_temperature;BMP_pressure;BME280_temperature;BME280_humidity;BME280_pressure;Samples;Min_cycle;Max_cycle;Signal;HPM_P1;HPM_P2
2022/05/11 00:01:53;;;;;;;;;7.00;5.50;;;;;20.76;48.17;101218.91;5066891;28;45412;-52
2022/05/11 00:04:19;;;;;;;;;9.00;5.00;;;;;20.72;47.96;101222.88;5071810;28;45473;-52
2022/05/11 00:06:45;;;;;;;;;4.25;4.25;;;;;20.71;48.46;101221.19;5073613;28;46432;-49
2022/05/11 00:09:13;;;;;;;;;4.00;4.00;;;;;20.72;48.43;101224.69;5069873;28;45504;-53
2022/05/11 00:11:39;;;;;;;;;5.50;5.50;;;;;20.72;48.44;101214.00;5069405;28;45739;-52
2022/05/11 00:14:06;;;;;;;;;6.25;6.00;;;;;20.72;47.96;101214.84;5070087;28;46170;-54
2022/05/11 00:16:32;;;;;;;;;7.00;5.00;;;;;20.74;48.36;101214.69;5071530;28;45805;-53
2022/05/11 00:18:58;;;;;;;;;6.25;4.75;;;;;20.75;48.40;101206.50;5070608;27;45507;-52
2022/05/11 00:21:24;;;;;;;;;9.00;6.75;;;;;20.73;48.05;101216.53;5069832;28;45363;-49
2022/05/11 00:23:52;;;;;;;;;3.75;3.00;;;;;20.69;48.48;101209.75;5069885;28;45370;-51
2022/05/11 00:26:18;;;;;;;;;6.50;5.75;;;;;20.66;48.50;101206.53;5071049;28;45395;-49
2022/05/11 00:28:44;;;;;;;;;5.75;5.75;;;;;20.65;48.57;101205.69;5071340;28;45521;-50
2022/05/11 00:31:09;;;;;;;;;6.00;5.00;;;;;20.66;48.71;101211.88;5070214;28;45347;-47
2022/05/11 00:33:36;;;;;;;;;4.00;3.75;;;;;20.66;48.29;101199.34;5069247;28;45429;-48
2022/05/11 00:36:02;;;;;;;;;7.75;5.50;;;;;20.65;48.16;101188.78;5070354;27;45484;-53
2022/05/11 00:38:29;;;;;;;;;6.50;5.75;;;;;20.64;48.67;101187.94;5069267;28;45457;-52
2022/05/11 00:40:57;;;;;;;;;4.50;4.50;;;;;20.61;48.55;101190.88;5070341;28;45394;-48
2022/05/11 00:43:33;;;;;;;;;5.50;5.25;;;;;20.57;48.72;101185.00;5068182;28;46046;-50
2022/05/11 00:46:24;;;;;;;;;6.25;4.50;;;;;20.56;48.74;101179.78;5070908;28;45587;-48
2022/05/11 00:51:43;;;;;;;;;6.50;6.25;;;;;20.53;48.47;101167.53;5067383;28;45410;-51
2022/05/11 00:54:10;;;;;;;;;8.25;7.25;;;;;20.50;49.08;101172.34;5071248;27;46608;-48
2022/05/11 00:56:42;;;;;;;;;5.25;5.25;;;;;20.49;48.70;101170.66;5069396;28;45359;-50
2022/05/11 00:59:16;;;;;;;;;5.75;5.75;;;;;20.48;49.15;101158.25;5068954;28;45462;-50
2022/05/11 01:01:42;;;;;;;;;9.75;6.50;;;;;20.49;48.76;101159.94;5067164;28;45322;-48
2022/05/11 01:04:15;;;;;;;;;6.75;4.75;;;;;20.47;49.33;101156.59;5071581;28;45336;-49
2022/05/11 01:06:42;;;;;;;;;6.50;6.50;;;;;20.44;48.96;101147.00;5072052;28;45429;-52
2022/05/11 01:09:08;;;;;;;;;7.00;5.25;;;;;20.45;48.88;101148.66;5060723;28;45585;-52
2022/05/11 01:11:39;;;;;;;;;5.50;5.50;;;;;20.41;48.91;101141.06;5067915;27;45282;-51
2022/05/11 01:14:09;;;;;;;;;4.50;4.50;;;;;20.36;49.02;101138.81;5068419;28;46453;-52
2022/05/11 01:16:36;;;;;;;;;6.50;5.00;;;;;20.34;49.03;101133.59;5070723;27;45385;-51
2022/05/11 01:19:04;;;;;;;;;4.25;3.75;;;;;20.32;49.28;101132.91;5067262;27;45236;-51
2022/05/11 01:21:41;;;;;;;;;6.00;5.25;;;;;20.30;49.05;101134.03;5067873;28;45531;-52
2022/05/11 01:24:26;;;;;;;;;6.50;4.75;;;;;20.30;49.09;101126.88;5068518;28;45306;-50
2022/05/11 01:26:51;;;;;;;;;6.00;5.00;;;;;20.28;49.37;101127.97;5069898;28;45308;-53
2022/05/11 01:29:17;;;;;;;;;6.25;4.75;;;;;20.26;49.30;101122.78;5070541;28;45313;-53
2022/05/11 01:31:42;;;;;;;;;8.00;5.00;;;;;20.24;49.33;101129.28;5067729;28;45511;-49
2022/05/11 01:34:10;;;;;;;;;8.25;6.25;;;;;20.23;49.73;101125.75;5068745;28;45350;-48
2022/05/11 01:36:36;;;;;;;;;8.25;6.00;;;;;20.22;49.70;101118.72;5070020;28;45460;-50
2022/05/11 01:39:09;;;;;;;;;5.00;4.50;;;;;20.19;49.76;101126.19;5060559;27;45563;-50
2022/05/11 01:41:51;;;;;;;;;4.75;4.75;;;;;20.16;49.93;101121.13;5070713;28;45555;-50
2022/05/11 01:44:18;;;;;;;;;5.00;5.00;;;;;20.14;49.50;101125.75;5068457;28;46302;-49
2022/05/11 01:46:46;;;;;;;;;11.25;5.75;;;;;20.12;49.63;101119.72;5069888;28;45254;-49
2022/05/11 01:49:11;;;;;;;;;7.00;6.50;;;;;20.05;50.03;101122.09;5073068;27;45434;-49
2022/05/11 01:51:37;;;;;;;;;4.25;4.25;;;;;20.01;49.96;101123.41;5070109;28;45707;-51
2022/05/11 01:54:03;;;;;;;;;6.00;5.50;;;;;20.00;50.10;101127.06;5069951;28;45572;-50
2022/05/11 01:56:28;;;;;;;;;6.00;4.00;;;;;19.96;49.91;101122.97;5068454;27;46323;-50
2022/05/11 01:58:54;;;;;;;;;5.75;5.75;;;;;19.96;50.06;101129.16;5069098;28;45554;-50
2022/05/11 02:01:26;;;;;;;;;9.00;6.25;;;;;19.98;49.90;101119.16;5076713;28;45578;-50
2022/05/11 02:03:51;;;;;;;;;7.25;7.00;;;;;19.99;50.02;101126.22;5077485;28;45322;-52
2022/05/11 02:09:03;;;;;;;;;5.00;5.00;;;;;20.02;50.11;101117.91;5072949;28;45332;-51
2022/05/11 02:11:29;;;;;;;;;5.25;4.75;;;;;20.01;49.98;101110.03;5078088;28;45674;-53
2022/05/11 02:13:56;;;;;;;;;8.25;6.00;;;;;19.99;50.24;101114.69;5076922;28;45393;-51
2022/05/11 02:16:23;;;;;;;;;6.00;6.00;;;;;19.98;50.30;101111.13;5075710;28;45322;-52
2022/05/11 02:18:48;;;;;;;;;9.00;8.00;;;;;19.99;50.41;101112.00;5073481;27;45314;-53
2022/05/11 02:21:14;;;;;;;;;5.50;5.50;;;;;19.99;50.22;101101.31;5076909;28;45427;-54
2022/05/11 02:23:39;;;;;;;;;5.75;5.75;;;;;19.99;50.04;101103.97;5077064;28;46335;-53
2022/05/11 02:26:09;;;;;;;;;5.00;5.00;;;;;19.98;50.15;101112.97;5076190;28;45419;-53
2022/05/11 02:28:35;;;;;;;;;4.25;4.25;;;;;19.96;50.44;101113.13;5075579;28;45450;-53
2022/05/11 02:31:00;;;;;;;;;6.50;6.00;;;;;19.94;49.99;101106.22;5075782;28;45512;-49
2022/05/11 02:33:26;;;;;;;;;5.00;5.00;;;;;19.91;50.37;101103.84;5077610;28;45682;-51
2022/05/11 02:35:53;;;;;;;;;10.75;5.25;;;;;19.85;50.38;101107.94;5074835;28;45334;-52
2022/05/11 02:38:25;;;;;;;;;8.75;7.00;;;;;19.78;50.32;101101.47;5076306;28;45370;-52
2022/05/11 02:40:51;;;;;;;;;5.25;5.00;;;;;19.70;50.49;101102.16;5075083;28;45562;-50
2022/05/11 02:43:17;;;;;;;;;6.00;5.25;;;;;19.69;51.05;101097.81;5077041;28;46191;-51
2022/05/11 02:45:43;;;;;;;;;6.00;5.50;;;;;19.69;51.14;101092.47;5072503;28;45314;-54
2022/05/11 02:48:13;;;;;;;;;7.00;6.00;;;;;19.69;50.60;101088.94;5076829;28;45240;-51
2022/05/11 02:50:46;;;;;;;;;7.50;6.00;;;;;19.67;51.18;101089.09;5075384;28;45540;-51
2022/05/11 02:53:13;;;;;;;;;6.00;6.00;;;;;19.63;51.24;101084.16;5074357;28;45540;-52
2022/05/11 02:55:41;;;;;;;;;7.00;6.50;;;;;19.61;51.33;101081.63;5076414;28;45165;-52
2022/05/11 02:58:08;;;;;;;;;6.00;6.00;;;;;19.62;51.58;101079.81;5075879;28;45421;-53
2022/05/11 03:00:36;;;;;;;;;6.00;6.00;;;;;19.58;51.03;101084.56;5074239;27;45391;-52
2022/05/11 03:03:03;;;;;;;;;7.25;6.25;;;;;19.57;51.76;101084.72;5076805;28;45294;-52
2022/05/11 03:05:29;;;;;;;;;6.50;6.50;;;;;19.53;51.48;101087.66;5076607;28;45525;-50
2022/05/11 03:07:54;;;;;;;;;7.00;6.00;;;;;19.47;51.32;101084.69;5074335;28;45498;-53
2022/05/11 03:10:20;;;;;;;;;8.00;7.00;;;;;19.42;51.58;101089.59;5075038;27;45448;-51
2022/05/11 03:12:45;;;;;;;;;7.00;6.00;;;;;19.41;51.76;101091.41;5073523;28;45930;-51
2022/05/11 03:15:11;;;;;;;;;7.00;6.75;;;;;19.38;52.14;101093.53;5071633;28;45467;-49
2022/05/11 03:17:37;;;;;;;;;6.00;6.00;;;;;19.38;52.24;101090.88;5071753;28;45500;-49
2022/05/11 03:20:04;;;;;;;;;8.00;6.50;;;;;19.40;52.12;101086.22;5068972;28;45377;-53
2022/05/11 03:22:30;;;;;;;;;6.75;5.00;;;;;19.39;52.24;101085.38;5073343;27;45342;-49
2022/05/11 03:24:55;;;;;;;;;6.75;6.50;;;;;19.42;52.19;101081.56;5073291;28;45260;-53
2022/05/11 03:27:21;;;;;;;;;8.00;6.25;;;;;19.43;51.80;101086.81;5070899;28;46460;-53
2022/05/11 03:29:47;;;;;;;;;6.75;6.00;;;;;19.44;52.30;101076.97;5072227;28;45396;-52
2022/05/11 03:34:57;;;;;;;;;6.50;6.50;;;;;19.39;51.94;101085.38;5065098;28;45264;-53
2022/05/11 03:37:23;;;;;;;;;5.75;5.75;;;;;19.40;52.29;101081.72;5069456;27;45470;-52
2022/05/11 03:39:49;;;;;;;;;7.25;6.00;;;;;19.39;52.04;101080.03;5069285;28;45371;-54
2022/05/11 03:42:17;;;;;;;;;7.50;6.00;;;;;19.38;52.14;101077.50;5071361;28;45337;-53
2022/05/11 03:44:43;;;;;;;;;8.50;6.25;;;;;19.36;51.88;101068.81;5073424;28;45425;-51
2022/05/11 03:47:09;;;;;;;;;8.50;7.50;;;;;19.35;52.02;101072.44;5071396;28;45322;-49
2022/05/11 03:49:34;;;;;;;;;10.25;8.75;;;;;19.30;52.30;101067.53;5072896;28;45476;-52
2022/05/11 03:52:01;;;;;;;;;15.50;14.75;;;;;19.24;52.65;101071.59;5072568;28;45485;-51
2022/05/11 03:54:27;;;;;;;;;20.00;19.00;;;;;19.23;52.73;101083.25;5073534;28;45481;-53
2022/05/11 03:56:52;;;;;;;;;27.50;25.25;;;;;19.20;52.92;101072.84;5072557;28;45343;-53
2022/05/11 03:59:18;;;;;;;;;37.50;30.00;;;;;19.17;53.28;101075.78;5072985;27;46857;-54
2022/05/11 04:01:44;;;;;;;;;38.25;32.00;;;;;19.17;53.20;101078.47;5067768;28;45587;-54
2022/05/11 04:04:10;;;;;;;;;44.75;32.00;;;;;19.14;53.12;101070.72;5073069;28;45468;-53
2022/05/11 04:06:35;;;;;;;;;40.25;26.75;;;;;19.09;53.35;101083.66;5076034;28;45438;-54
2022/05/11 04:09:01;;;;;;;;;36.50;32.00;;;;;19.05;53.81;101084.06;5071077;27;45434;-53
2022/05/11 04:11:29;;;;;;;;;31.00;28.25;;;;;19.03;54.00;101080.69;5072641;28;45497;-54
2022/05/11 04:13:55;;;;;;;;;31.50;26.75;;;;;19.02;53.65;101081.66;5072875;27;45274;-55
2022/05/11 04:16:22;;;;;;;;;31.50;27.25;;;;;19.04;53.60;101082.34;5074702;28;45245;-52
2022/05/11 04:18:48;;;;;;;;;35.75;24.25;;;;;19.02;53.67;101081.66;5073006;28;45605;-53
2022/05/11 04:21:14;;;;;;;;;22.25;19.50;;;;;19.02;54.07;101090.50;5072565;27;45315;-52
2022/05/11 04:23:40;;;;;;;;;24.25;18.25;;;;;19.02;53.90;101093.19;5069838;28;45423;-53
2022/05/11 04:26:11;;;;;;;;;24.75;20.25;;;;;19.04;54.14;101088.56;5074616;28;45379;-52
2022/05/11 04:28:38;;;;;;;;;23.25;21.50;;;;;19.05;54.10;101090.25;5071906;28;45414;-52
2022/05/11 04:31:06;;;;;;;;;21.75;17.00;;;;;19.06;53.92;101091.09;5073701;28;46086;-53
2022/05/11 04:33:32;;;;;;;;;17.00;15.00;;;;;19.07;53.96;101082.09;5070896;28;45490;-53
2022/05/11 04:35:58;;;;;;;;;19.00;18.00;;;;;19.07;53.83;101085.63;5070333;28;45485;-53
2022/05/11 04:38:24;;;;;;;;;15.50;14.25;;;;;19.07;53.86;101084.78;5070494;28;45473;-51
2022/05/11 04:40:49;;;;;;;;;17.00;15.75;;;;;19.07;53.86;101090.13;5069587;28;45228;-53
2022/05/11 04:43:15;;;;;;;;;21.00;15.75;;;;;19.03;53.97;101083.34;5073129;28;45257;-53
2022/05/11 04:45:43;;;;;;;;;14.00;14.00;;;;;19.03;53.99;101091.34;5070082;28;45250;-52
2022/05/11 04:48:09;;;;;;;;;14.50;13.75;;;;;19.00;53.95;101084.47;5071203;28;45223;-52
2022/05/11 04:50:37;;;;;;;;;18.50;14.75;;;;;19.01;53.84;101087.97;5069407;28;45903;-53
2022/05/11 04:53:04;;;;;;;;;22.00;14.25;;;;;19.03;54.06;101083.34;5069981;28;45366;-51
2022/05/11 04:55:29;;;;;;;;;21.50;15.50;;;;;19.06;54.13;101085.75;5072497;28;46710;-51
2022/05/11 04:57:55;;;;;;;;;17.25;14.25;;;;;19.05;53.90;101092.09;5070888;28;45330;-51
2022/05/11 05:00:21;;;;;;;;;15.75;11.00;;;;;19.05;53.97;101089.41;5070020;28;46150;-54
2022/05/11 05:02:46;;;;;;;;;16.25;14.75;;;;;19.01;54.29;101080.81;5070484;28;45199;-54
2022/05/11 05:05:12;;;;;;;;;16.25;11.75;;;;;19.00;54.51;101084.47;5073629;28;45210;-54
2022/05/11 05:07:42;;;;;;;;;18.50;12.25;;;;;19.00;54.35;101079.13;5071580;28;45384;-50
2022/05/11 05:10:12;;;;;;;;;15.75;12.25;;;;;19.01;54.53;101083.50;5067816;28;45472;-52
2022/05/11 05:12:38;;;;;;;;;11.00;11.00;;;;;19.04;54.75;101088.56;5069290;28;45479;-53
2022/05/11 05:15:04;;;;;;;;;15.50;11.00;;;;;19.07;54.01;101082.94;5071928;28;45365;-53
2022/05/11 05:17:30;;;;;;;;;13.50;9.50;;;;;19.09;53.85;101086.31;5071225;28;45239;-53
2022/05/11 05:19:56;;;;;;;;;11.00;9.00;;;;;19.15;53.90;101074.25;5069925;28;46066;-54
2022/05/11 05:22:22;;;;;;;;;13.25;12.75;;;;;19.19;54.15;101079.16;5069356;28;45334;-53
2022/05/11 05:24:49;;;;;;;;;10.75;10.00;;;;;19.23;54.00;101069.91;5072091;28;45288;-53
2022/05/11 05:27:17;;;;;;;;;12.25;10.25;;;;;19.27;53.79;101074.94;5070657;28;45236;-49
2022/05/11 05:32:34;;;;;;;;;14.00;11.00;;;;;19.25;53.92;101088.44;5066918;28;45350;-53
2022/05/11 05:35:00;;;;;;;;;15.00;11.50;;;;;19.27;53.76;101089.16;5070866;28;45491;-52
2022/05/11 05:37:25;;;;;;;;;16.50;12.25;;;;;19.27;54.04;101082.97;5068191;28;45573;-52
2022/05/11 05:39:51;;;;;;;;;13.50;11.50;;;;;19.34;54.31;101086.78;5069509;28;45156;-51
2022/05/11 05:42:21;;;;;;;;;16.75;14.00;;;;;19.41;54.25;101090.56;5061475;28;45246;-52
2022/05/11 05:44:47;;;;;;;;;15.00;12.00;;;;;19.47;54.31;101084.69;5061294;28;45315;-51
2022/05/11 05:47:13;;;;;;;;;13.00;12.50;;;;;19.56;53.85;101088.34;5061154;28;45460;-50
2022/05/11 05:49:39;;;;;;;;;13.25;12.25;;;;;19.60;54.04;101087.13;5061179;28;45429;-52
2022/05/11 05:52:06;;;;;;;;;14.00;12.75;;;;;19.65;53.91;101084.84;5069682;28;45196;-52
2022/05/11 05:54:33;;;;;;;;;14.00;12.50;;;;;19.70;54.07;101091.47;5067109;28;45408;-54
2022/05/11 05:56:59;;;;;;;;;14.75;14.00;;;;;19.77;54.23;101091.75;5069858;28;45612;-53
2022/05/11 05:59:25;;;;;;;;;15.75;13.25;;;;;19.83;53.67;101093.88;5060796;28;45377;-53
2022/05/11 06:01:51;;;;;;;;;16.25;15.25;;;;;19.88;53.70;101096.09;5060374;28;45469;-50
2022/05/11 06:04:17;;;;;;;;;16.25;12.50;;;;;19.92;53.49;101103.69;5060815;28;45462;-52
2022/05/11 06:06:42;;;;;;;;;18.00;15.75;;;;;19.96;53.78;101093.56;5069773;28;45233;-50
2022/05/11 06:09:09;;;;;;;;;14.75;13.25;;;;;20.01;53.62;101096.66;5060380;28;45342;-53
2022/05/11 06:11:36;;;;;;;;;20.75;17.00;;;;;20.07;53.71;101098.75;5060121;28;45310;-51
2022/05/11 06:14:03;;;;;;;;;16.25;15.75;;;;;20.13;53.40;101098.16;5060545;28;45482;-49
2022/05/11 06:16:28;;;;;;;;;20.50;15.50;;;;;20.19;53.00;101096.75;5059340;28;45300;-53
2022/05/11 06:18:54;;;;;;;;;17.25;15.75;;;;;20.22;53.09;101094.66;5059772;28;45469;-57
2022/05/11 06:21:20;;;;;;;;;15.00;15.00;;;;;20.27;53.20;101097.72;5059615;28;45388;-54
2022/05/11 06:23:46;;;;;;;;;20.75;15.25;;;;;20.35;52.94;101097.84;5051472;28;46274;-52
2022/05/11 06:26:12;;;;;;;;;15.00;14.50;;;;;20.46;52.64;101085.28;5055436;28;45462;-55
2022/05/11 06:28:40;;;;;;;;;14.25;12.75;;;;;20.55;52.86;101089.78;5057503;28;45678;-54
2022/05/11 06:31:07;;;;;;;;;15.00;15.00;;;;;20.65;52.36;101089.75;5059975;28;45303;-52
2022/05/11 06:33:33;;;;;;;;;16.75;15.00;;;;;20.70;52.39;101087.47;5060264;28;45458;-51
2022/05/11 06:35:59;;;;;;;;;17.25;14.25;;;;;20.76;51.95;101085.03;5060251;28;45252;-53
2022/05/11 06:38:26;;;;;;;;;16.00;13.75;;;;;20.81;51.41;101089.94;5059758;28;46073;-53
2022/05/11 06:40:51;;;;;;;;;12.75;10.50;;;;;20.85;50.75;101089.50;5059515;28;45303;-54
2022/05/11 06:43:17;;;;;;;;;13.00;12.25;;;;;20.86;50.76;101087.66;5060167;28;45414;-54
2022/05/11 06:45:42;;;;;;;;;12.00;12.00;;;;;20.89;50.59;101090.03;5060102;28;45451;-53
2022/05/11 06:48:08;;;;;;;;;14.25;12.50;;;;;20.97;50.83;101097.34;5062374;28;46562;-52
2022/05/11 06:50:34;;;;;;;;;15.75;12.00;;;;;20.99;50.80;101100.69;5063363;28;45252;-53
2022/05/11 06:53:11;;;;;;;;;12.25;12.25;;;;;20.98;50.54;101099.84;5063252;28;45304;-51
2022/05/11 07:01:11;;;;;;;;;15.00;10.25;;;;;21.04;50.34;101091.22;5062559;28;45525;-52
2022/05/11 07:03:36;;;;;;;;;20.50;12.75;;;;;21.05;50.49;101090.22;5063321;28;45496;-51
2022/05/11 07:06:03;;;;;;;;;17.00;12.50;;;;;21.06;50.14;101089.22;5071935;28;45291;-53
2022/05/11 07:08:40;;;;;;;;;16.25;13.75;;;;;21.05;49.61;101094.75;5062671;28;46594;-54
2022/05/11 07:13:53;;;;;;;;;10.50;9.75;;;;;21.00;49.25;101095.19;5063432;28;45279;-53
2022/05/11 07:16:19;;;;;;;;;12.50;10.25;;;;;20.97;49.02;101097.34;5063494;28;45304;-51
2022/05/11 07:18:44;;;;;;;;;9.50;9.50;;;;;20.93;49.11;101096.75;5063124;28;45411;-53
2022/05/11 07:21:10;;;;;;;;;14.00;11.00;;;;;20.92;49.11;101097.75;5062960;28;45383;-52
2022/05/11 07:23:36;;;;;;;;;17.25;13.25;;;;;20.95;48.92;101092.13;5058938;28;45498;-54
2022/05/11 07:26:02;;;;;;;;;10.75;10.75;;;;;20.96;49.45;101099.16;5063236;28;45424;-54
2022/05/11 07:28:28;;;;;;;;;12.00;11.25;;;;;21.01;49.01;101096.03;5062968;28;46308;-53
2022/05/11 07:30:53;;;;;;;;;13.75;11.50;;;;;21.02;49.10;101090.53;5063127;28;45341;-53
2022/05/11 07:33:19;;;;;;;;;12.50;12.00;;;;;21.02;49.29;101081.66;5062898;28;45291;-52
2022/05/11 07:35:45;;;;;;;;;15.75;12.75;;;;;21.05;49.17;101086.72;5062548;28;45335;-53
2022/05/11 07:38:14;;;;;;;;;14.75;11.50;;;;;21.05;48.82;101084.88;5062177;28;45419;-55
2022/05/11 07:40:41;;;;;;;;;13.25;10.75;;;;;21.06;48.48;101083.88;5060938;28;45505;-53
2022/05/11 07:43:08;;;;;;;;;13.00;11.00;;;;;21.09;48.37;101083.59;5062699;28;45259;-55
2022/05/11 07:45:34;;;;;;;;;10.50;9.00;;;;;21.12;48.50;101094.00;5062559;28;45553;-51
2022/05/11 07:48:00;;;;;;;;;9.75;9.75;;;;;21.12;48.42;101083.28;5060718;28;45564;-54
2022/05/11 07:50:25;;;;;;;;;9.25;9.25;;;;;21.14;48.32;101086.63;5062189;28;45220;-49
2022/05/11 07:52:53;;;;;;;;;8.25;8.25;;;;;21.16;48.27;101087.31;5062142;28;45199;-51
2022/05/11 07:55:20;;;;;;;;;12.25;8.75;;;;;21.18;48.48;101084.53;5062637;28;45515;-49
2022/05/11 08:00:31;;;;;;;;;7.75;7.00;;;;;21.29;48.14;101086.16;5062055;28;45341;-53
2022/05/11 08:02:57;;;;;;;;;9.75;8.25;;;;;21.37;47.87;101086.25;5062459;28;45386;-50
2022/05/11 08:05:23;;;;;;;;;12.75;10.00;;;;;21.42;47.61;101086.63;5061988;28;45449;-51
2022/05/11 08:07:55;;;;;;;;;16.50;10.75;;;;;21.50;47.46;101084.03;5062205;28;46397;-50
2022/05/11 08:10:32;;;;;;;;;11.75;9.25;;;;;21.58;47.12;101085.94;5061881;28;46513;-48
2022/05/11 08:13:00;;;;;;;;;13.25;8.25;;;;;21.64;46.67;101088.00;5062333;28;45301;-52
2022/05/11 08:15:31;;;;;;;;;10.00;7.25;;;;;21.67;46.56;101093.06;5061854;28;45298;-49
2022/05/11 08:17:58;;;;;;;;;8.75;7.00;;;;;21.63;46.31;101086.31;5061904;28;45519;-49
2022/05/11 08:20:27;;;;;;;;;8.75;7.50;;;;;21.65;46.03;101081.66;5059130;28;45288;-53
2022/05/11 08:22:53;;;;;;;;;6.25;5.00;;;;;21.69;45.25;101083.03;5061722;28;45236;-51
2022/05/11 08:25:21;;;;;;;;;7.25;7.00;;;;;21.68;44.71;101084.84;5061074;28;45726;-51
2022/05/11 08:27:48;;;;;;;;;7.75;6.75;;;;;21.69;44.99;101075.81;5052959;28;46091;-51
2022/05/11 08:35:44;;;;;;;;;4.25;4.00;;;;;21.79;44.73;101083.75;5057302;28;45428;-53
2022/05/11 08:38:11;;;;;;;;;6.75;6.75;;;;;21.82;44.56;101080.78;5060893;28;45371;-49
2022/05/11 08:40:40;;;;;;;;;5.25;5.25;;;;;21.88;44.17;101079.31;5060975;28;45454;-51
2022/05/11 08:43:15;;;;;;;;;7.50;7.00;;;;;21.95;43.74;101078.53;5059642;28;45454;-52
2022/05/11 08:45:54;;;;;;;;;6.75;6.75;;;;;22.02;43.67;101084.94;5061432;28;45390;-54
2022/05/11 08:48:55;;;;;;;;;15.00;6.50;;;;;22.05;43.30;101081.13;5060625;28;46157;-52
2022/05/11 08:51:51;;;;;;;;;15.25;8.00;;;;;22.10;42.66;101078.00;5061323;28;45409;-50
2022/05/11 08:54:49;;;;;;;;;8.75;4.75;;;;;22.17;42.67;101077.22;5058105;28;45656;-50
2022/05/11 08:57:25;;;;;;;;;6.00;6.00;;;;;22.25;42.88;101077.25;5061406;28;45248;-52
2022/05/11 08:59:59;;;;;;;;;5.50;3.25;;;;;22.35;42.39;101078.97;5060794;28;45484;-49
2022/05/11 09:02:41;;;;;;;;;7.00;3.25;;;;;22.44;42.54;101075.38;5059177;28;45505;-51
2022/05/11 09:05:06;;;;;;;;;6.50;4.75;;;;;22.53;42.22;101077.09;5059066;28;45495;-51
2022/05/11 09:07:37;;;;;;;;;4.25;3.00;;;;;22.61;41.53;101073.59;5056594;28;45410;-47
2022/05/11 09:10:05;;;;;;;;;5.00;4.00;;;;;22.68;40.70;101078.16;5056351;28;45473;-47
2022/05/11 09:12:31;;;;;;;;;4.00;3.25;;;;;22.70;40.30;101078.00;5057478;28;45447;-48
2022/05/11 09:14:59;;;;;;;;;1.75;1.75;;;;;22.74;40.50;101069.44;5060232;28;45444;-48
2022/05/11 09:17:32;;;;;;;;;6.00;2.75;;;;;22.80;39.80;101070.66;5058837;28;45280;-47
2022/05/11 09:20:11;;;;;;;;;3.25;2.50;;;;;22.79;40.08;101075.19;5059498;28;46277;-48
2022/05/11 09:22:59;;;;;;;;;2.25;0.00;;;;;22.88;40.25;101078.78;5057220;28;45425;-50
2022/05/11 09:25:35;;;;;;;;;3.25;3.00;;;;;22.99;40.27;101077.66;5055348;28;45563;-50
2022/05/11 09:28:23;;;;;;;;;5.75;3.50;;;;;23.12;40.22;101078.84;5059418;28;45524;-50
2022/05/11 09:31:02;;;;;;;;;5.00;2.75;;;;;23.25;40.00;101078.38;5055217;28;46172;-51
2022/05/11 09:33:33;;;;;;;;;5.75;3.00;;;;;23.33;39.87;101072.19;5060383;28;45387;-51
2022/05/11 09:36:02;;;;;;;;;3.50;3.00;;;;;23.40;39.55;101068.66;5056241;28;45472;-50
2022/05/11 09:38:46;;;;;;;;;2.00;2.00;;;;;23.48;39.99;101075.88;5061405;28;45552;-49
2022/05/11 09:41:17;;;;;;;;;5.75;3.00;;;;;23.49;39.35;101077.56;5065618;28;45431;-54
2022/05/11 09:43:52;;;;;;;;;2.75;2.00;;;;;23.55;39.79;101065.31;5067857;28;45483;-54
2022/05/11 09:46:27;;;;;;;;;9.00;6.00;;;;;23.65;38.43;101064.16;5067101;27;45478;-50
2022/05/11 09:49:07;;;;;;;;;6.00;4.25;;;;;23.68;38.76;101071.03;5058502;28;45602;-51
2022/05/11 09:51:39;;;;;;;;;8.75;4.00;;;;;23.71;38.33;101059.13;5057947;28;46849;-51
2022/05/11 09:54:22;;;;;;;;;7.25;3.25;;;;;23.73;38.51;101062.47;5050924;28;45297;-49
2022/05/11 09:57:01;;;;;;;;;6.00;3.75;;;;;23.76;38.41;101059.44;5057057;28;45475;-49
2022/05/11 09:59:32;;;;;;;;;4.50;4.00;;;;;23.84;38.35;101049.50;5060530;28;45493;-48
2022/05/11 10:02:22;;;;;;;;;4.50;3.50;;;;;23.94;38.35;101057.44;5060302;28;45255;-51
2022/05/11 10:05:10;;;;;;;;;2.25;2.25;;;;;24.01;38.41;101058.41;5040831;28;45534;-50
2022/05/11 10:07:46;;;;;;;;;5.00;4.00;;;;;24.08;38.26;101050.50;5054549;28;45425;-48
2022/05/11 10:10:31;;;;;;;;;3.00;3.00;;;;;24.17;38.73;101061.09;5060313;28;45397;-55
2022/05/11 10:13:30;;;;;;;;;2.25;2.00;;;;;24.23;38.40;101062.25;5059947;28;46285;-47
2022/05/11 10:21:50;;;;;;;;;5.00;2.75;;;;;24.46;38.59;101068.59;5061261;28;45377;-47
2022/05/11 10:24:37;;;;;;;;;3.50;3.50;;;;;24.51;38.13;101060.00;5062694;28;46189;-49
2022/05/11 10:27:16;;;;;;;;;2.00;2.00;;;;;24.56;37.76;101062.16;5058972;28;45389;-47
2022/05/11 10:30:13;;;;;;;;;4.75;3.00;;;;;24.62;38.85;101051.53;5063520;28;45312;-47
2022/05/11 10:33:25;;;;;;;;;4.25;3.00;;;;;24.72;38.58;101054.00;5063456;28;45583;-49
2022/05/11 10:36:09;;;;;;;;;5.00;2.75;;;;;24.83;38.68;101063.59;5051231;28;45201;-49
2022/05/11 10:39:01;;;;;;;;;3.50;3.00;;;;;24.83;38.52;101055.50;5062723;28;45287;-45
2022/05/11 10:41:33;;;;;;;;;1.00;1.00;;;;;24.82;37.99;101054.66;5063170;28;45279;-47
2022/05/11 10:44:04;;;;;;;;;3.00;2.00;;;;;24.80;38.13;101051.28;5063473;28;45240;-45
2022/05/11 10:46:49;;;;;;;;;2.00;2.00;;;;;24.83;38.52;101060.88;5062270;28;45193;-48
2022/05/11 10:49:14;;;;;;;;;3.00;3.00;;;;;24.82;38.66;101046.56;5063324;28;45342;-45
2022/05/11 10:51:58;;;;;;;;;4.25;2.00;;;;;24.87;38.58;101051.41;5062935;28;46074;-44
2022/05/11 10:54:50;;;;;;;;;5.00;3.00;;;;;24.92;38.34;101038.25;5066903;28;45382;-47
2022/05/11 10:57:30;;;;;;;;;3.00;3.00;;;;;25.01;38.70;101039.91;5051971;28;45496;-45
2022/05/11 11:00:18;;;;;;;;;1.25;1.25;;;;;25.10;38.41;101032.63;5063038;28;45251;-46
2022/05/11 11:02:46;;;;;;;;;5.50;4.00;;;;;25.19;38.53;101034.25;5063047;28;45596;-47
2022/05/11 11:05:20;;;;;;;;;4.00;3.25;;;;;25.17;38.65;101036.28;5062965;28;45386;-49
2022/05/11 11:08:17;;;;;;;;;5.25;4.00;;;;;25.12;38.58;101036.84;5062586;28;45349;-49
2022/05/11 11:10:52;;;;;;;;;7.50;5.25;;;;;25.07;39.23;101033.84;5055867;28;45386;-50
2022/05/11 11:13:45;;;;;;;;;3.25;3.00;;;;;25.04;38.45;101026.06;5063072;28;45418;-45
2022/05/11 11:16:13;;;;;;;;;7.50;5.00;;;;;25.06;38.79;101015.97;5062228;28;45695;-45
2022/05/11 11:18:43;;;;;;;;;5.50;4.25;;;;;25.09;39.37;101023.69;5062279;28;45319;-48
2022/05/11 11:21:10;;;;;;;;;12.25;6.00;;;;;25.15;39.55;101016.75;5061840;28;45218;-48
2022/05/11 11:23:47;;;;;;;;;8.00;5.75;;;;;25.21;38.86;101018.75;5061823;28;46625;-47
2022/05/11 11:26:46;;;;;;;;;5.75;4.00;;;;;25.25;39.16;101012.78;5061341;28;45589;-49
2022/05/11 11:29:12;;;;;;;;;5.25;4.00;;;;;25.33;39.48;101018.13;5061998;28;46264;-44
2022/05/11 11:31:59;;;;;;;;;4.00;3.25;;;;;25.42;38.94;101010.81;5062377;28;45232;-47
2022/05/11 11:34:33;;;;;;;;;6.50;4.50;;;;;25.40;39.32;101006.63;5050793;28;45287;-47
2022/05/11 11:37:19;;;;;;;;;6.00;4.50;;;;;25.44;39.51;101013.34;5062413;28;45272;-48
2022/05/11 11:39:53;;;;;;;;;3.75;3.00;;;;;25.57;39.54;101009.00;5062352;28;45469;-48
2022/05/11 11:42:37;;;;;;;;;6.75;3.00;;;;;25.68;38.83;101005.03;5061915;28;45319;-49
2022/05/11 11:45:11;;;;;;;;;6.00;3.00;;;;;25.71;38.96;100998.44;5061058;28;45239;-47
2022/05/11 11:47:42;;;;;;;;;7.25;3.75;;;;;25.70;38.58;101008.38;5062364;28;45285;-46
2022/05/11 11:50:50;;;;;;;;;3.00;2.75;;;;;25.65;38.71;100994.59;5062215;28;45319;-45
2022/05/11 11:53:56;;;;;;;;;1.50;1.50;;;;;25.64;38.64;100987.53;5061789;28;45422;-50
2022/05/11 11:56:24;;;;;;;;;5.50;3.50;;;;;25.64;38.86;100984.00;5010194;28;45420;-48
2022/05/11 11:59:10;;;;;;;;;2.25;2.25;;;;;25.72;38.20;100998.28;5009007;28;45538;-45
2022/05/11 12:01:44;;;;;;;;;3.00;2.00;;;;;25.66;38.08;100987.34;5045826;28;45562;-46
2022/05/11 12:04:17;;;;;;;;;4.50;3.00;;;;;25.65;38.16;100994.59;5062250;28;45359;-49
2022/05/11 12:15:14;;;;;;;;;4.00;2.50;;;;;26.03;37.47;100997.28;5053569;28;45250;-46
2022/05/11 12:17:41;;;;;;;;;2.75;2.00;;;;;26.09;37.56;100997.38;5060516;28;45442;-45